createdAt,value
2023-02-03T00:02:20.913Z,8.36
2023-02-03T00:04:47.369Z,8.36
2023-02-03T00:07:15.042Z,8.38
2023-02-03T00:09:41.630Z,8.38
2023-02-03T00:12:08.827Z,8.40
2023-02-03T00:14:35.338Z,8.38
2023-02-03T00:17:01.773Z,8.39
2023-02-03T00:19:28.243Z,8.38
2023-02-03T00:21:54.675Z,8.39
2023-02-03T00:24:23.362Z,8.37
2023-02-03T00:26:49.873Z,8.36
2023-02-03T00:29:18.477Z,8.35
2023-02-03T00:31:45.037Z,8.39
2023-02-03T00:34:11.555Z,8.37
2023-02-03T00:36:37.971Z,8.35
2023-02-03T00:39:04.458Z,8.35
2023-02-03T00:41:34.268Z,8.35
2023-02-03T00:44:00.733Z,8.36
2023-02-03T00:46:27.209Z,8.35
2023-02-03T00:48:53.689Z,8.32
2023-02-03T00:51:21.373Z,8.31
2023-02-03T00:53:48.777Z,8.32
2023-02-03T00:56:15.384Z,8.34
2023-02-03T00:58:42.077Z,8.32
2023-02-03T01:01:09.057Z,8.36
2023-02-03T01:03:35.844Z,8.34
2023-02-03T01:06:31.583Z,8.33
2023-02-03T01:08:58.093Z,8.29
2023-02-03T01:11:27.208Z,8.31
2023-02-03T01:13:55.786Z,8.32
2023-02-03T01:16:24.275Z,8.34
2023-02-03T01:18:51.163Z,8.33
2023-02-03T01:21:21.172Z,8.37
2023-02-03T01:23:48.129Z,8.37
2023-02-03T01:26:17.044Z,8.38
2023-02-03T01:28:43.770Z,8.39
2023-02-03T01:31:13.370Z,8.41
2023-02-03T01:33:46.160Z,8.42
2023-02-03T01:36:13.615Z,8.39
2023-02-03T01:38:40.103Z,8.38
2023-02-03T01:41:09.873Z,8.35
2023-02-03T01:43:38.841Z,8.35
2023-02-03T01:46:33.577Z,8.34
2023-02-03T01:49:29.875Z,8.33
2023-02-03T01:51:56.552Z,8.34
2023-02-03T01:54:29.589Z,8.35
2023-02-03T01:57:03.462Z,8.34
2023-02-03T01:59:32.937Z,8.33
2023-02-03T02:02:01.636Z,8.35
2023-02-03T02:04:48.216Z,8.32
2023-02-03T02:07:15.926Z,8.31
2023-02-03T02:09:44.178Z,8.30
2023-02-03T02:12:11.615Z,8.29
2023-02-03T02:14:39.392Z,8.29
2023-02-03T02:17:22.834Z,8.27
2023-02-03T02:19:58.992Z,8.28
2023-02-03T02:22:33.582Z,8.31
2023-02-03T02:25:12.028Z,8.31
2023-02-03T02:27:57.261Z,8.30
2023-02-03T02:30:48.597Z,8.32
2023-02-03T02:33:35.243Z,8.30
2023-02-03T02:36:25.702Z,8.33
2023-02-03T02:39:02.456Z,8.32
2023-02-03T02:41:38.260Z,8.32
2023-02-03T02:44:36.412Z,8.29
2023-02-03T02:47:10.921Z,8.30
2023-02-03T02:49:44.631Z,8.31
2023-02-03T02:52:14.052Z,8.29
2023-02-03T02:54:45.135Z,8.31
2023-02-03T02:57:14.827Z,8.33
2023-02-03T02:59:41.383Z,8.32
2023-02-03T03:02:10.843Z,8.34
2023-02-03T03:04:38.266Z,8.34
2023-02-03T03:07:18.436Z,8.32
2023-02-03T03:09:52.364Z,8.33
2023-02-03T03:12:24.105Z,8.35
2023-02-03T03:14:56.980Z,8.35
2023-02-03T03:17:30.035Z,8.34
2023-02-03T03:20:00.482Z,8.32
2023-02-03T03:22:34.356Z,8.31
2023-02-03T03:25:09.785Z,8.33
2023-02-03T03:27:40.343Z,8.32
2023-02-03T03:30:14.259Z,8.32
2023-02-03T03:32:40.947Z,8.32
2023-02-03T03:35:07.962Z,8.31
2023-02-03T03:37:36.259Z,8.30
2023-02-03T03:40:13.978Z,8.30
2023-02-03T03:42:47.597Z,8.27
2023-02-03T03:45:20.530Z,8.27
2023-02-03T03:47:53.503Z,8.29
2023-02-03T03:50:23.494Z,8.31
2023-02-03T03:52:53.028Z,8.30
2023-02-03T03:55:20.575Z,8.32
2023-02-03T03:58:00.460Z,8.32
2023-02-03T04:00:30.964Z,8.34
2023-02-03T04:03:02.262Z,8.36
2023-02-03T04:05:28.723Z,8.34
2023-02-03T04:07:55.209Z,8.37
2023-02-03T04:10:34.801Z,8.39
2023-02-03T04:13:01.927Z,8.40
2023-02-03T04:15:28.492Z,8.41
2023-02-03T04:17:56.986Z,8.43
2023-02-03T04:20:24.766Z,8.44
2023-02-03T04:22:51.420Z,8.44
2023-02-03T04:25:17.849Z,8.44
2023-02-03T04:27:44.305Z,8.43
2023-02-03T04:30:11.673Z,8.43
2023-02-03T04:32:38.203Z,8.43
2023-02-03T04:35:06.454Z,8.44
2023-02-03T04:37:33.483Z,8.44
2023-02-03T04:40:00.199Z,8.45
2023-02-03T04:42:27.081Z,8.46
2023-02-03T04:44:53.679Z,8.45
2023-02-03T04:47:20.220Z,8.46
2023-02-03T04:49:46.944Z,8.46
2023-02-03T04:52:14.430Z,8.45
2023-02-03T04:54:40.967Z,8.46
2023-02-03T04:57:07.438Z,8.46
2023-02-03T04:59:33.925Z,8.45
2023-02-03T05:02:03.131Z,8.42
2023-02-03T05:04:29.992Z,8.44
2023-02-03T05:06:57.450Z,8.44
2023-02-03T05:09:25.029Z,8.45
2023-02-03T05:11:51.605Z,8.44
2023-02-03T05:14:18.153Z,8.45
2023-02-03T05:16:45.432Z,8.46
2023-02-03T05:19:13.169Z,8.51
2023-02-03T05:21:39.715Z,8.50
2023-02-03T05:24:07.860Z,8.49
2023-02-03T05:26:35.732Z,8.48
2023-02-03T05:29:02.738Z,8.48
2023-02-03T05:31:29.312Z,8.48
2023-02-03T05:33:55.762Z,8.50
2023-02-03T05:36:22.304Z,8.49
2023-02-03T05:38:48.742Z,8.50
2023-02-03T05:41:33.791Z,8.49
2023-02-03T05:44:00.355Z,8.49
2023-02-03T05:46:26.892Z,8.50
2023-02-03T05:48:53.368Z,8.51
2023-02-03T05:51:20.575Z,8.52
2023-02-03T05:53:47.060Z,8.51
2023-02-03T05:56:13.539Z,8.49
2023-02-03T05:58:39.989Z,8.49
2023-02-03T06:01:06.455Z,8.54
2023-02-03T06:03:33.028Z,8.55
2023-02-03T06:05:59.540Z,8.56
2023-02-03T06:08:28.640Z,8.54
2023-02-03T06:11:00.238Z,8.59
2023-02-03T06:13:27.370Z,8.64
2023-02-03T06:15:54.038Z,8.68
2023-02-03T06:18:20.503Z,8.71
2023-02-03T06:20:46.984Z,8.73
2023-02-03T06:23:13.478Z,8.75
2023-02-03T06:25:39.951Z,8.73
2023-02-03T06:28:06.478Z,8.74
2023-02-03T06:30:33.017Z,8.75
2023-02-03T06:32:59.539Z,8.78
2023-02-03T06:35:26.076Z,8.79
2023-02-03T06:37:53.087Z,8.78
2023-02-03T06:40:19.617Z,8.81
2023-02-03T06:42:47.386Z,8.82
2023-02-03T06:45:14.490Z,8.85
2023-02-03T06:47:42.249Z,8.86
2023-02-03T06:50:10.822Z,8.86
2023-02-03T06:52:37.503Z,8.86
2023-02-03T06:55:05.449Z,8.85
2023-02-03T06:57:32.613Z,8.83
2023-02-03T06:59:59.528Z,8.84
2023-02-03T07:02:26.079Z,8.84
2023-02-03T07:04:52.540Z,8.85
2023-02-03T07:07:18.993Z,8.84
2023-02-03T07:09:45.446Z,8.86
2023-02-03T07:12:11.888Z,8.83
2023-02-03T07:14:39.449Z,8.86
2023-02-03T07:17:07.281Z,8.86
2023-02-03T07:19:33.790Z,8.89
2023-02-03T07:22:00.461Z,8.90
2023-02-03T07:24:26.938Z,8.89
2023-02-03T07:26:53.639Z,8.88
2023-02-03T07:29:20.110Z,8.87
2023-02-03T07:31:46.754Z,8.90
2023-02-03T07:34:13.441Z,8.90
2023-02-03T07:36:40.002Z,8.91
2023-02-03T07:39:06.491Z,8.91
2023-02-03T07:41:33.109Z,8.92
2023-02-03T07:43:59.597Z,8.94
2023-02-03T07:46:26.117Z,8.93
2023-02-03T07:48:52.757Z,8.96
2023-02-03T07:51:19.421Z,8.96
2023-02-03T07:53:46.114Z,8.95
2023-02-03T07:56:12.620Z,8.96
2023-02-03T07:58:39.369Z,8.98
2023-02-03T08:01:15.016Z,8.98
2023-02-03T08:03:42.446Z,9.00
2023-02-03T08:06:09.012Z,9.01
2023-02-03T08:08:36.059Z,9.03
2023-02-03T08:11:02.705Z,9.03
2023-02-03T08:13:29.183Z,9.04
2023-02-03T08:15:55.655Z,9.08
2023-02-03T08:18:22.669Z,9.12
2023-02-03T08:20:49.480Z,9.16
2023-02-03T08:23:15.992Z,9.18
2023-02-03T08:25:42.557Z,9.17
2023-02-03T08:28:09.112Z,9.16
2023-02-03T08:30:35.917Z,9.16
2023-02-03T08:33:02.421Z,9.18
2023-02-03T08:35:29.029Z,9.20
2023-02-03T08:37:55.775Z,9.20
2023-02-03T08:40:22.238Z,9.20
2023-02-03T08:42:48.794Z,9.23
2023-02-03T08:45:15.283Z,9.25
2023-02-03T08:47:41.828Z,9.28
2023-02-03T08:50:09.539Z,9.29
2023-02-03T08:52:36.316Z,9.31
2023-02-03T08:55:03.207Z,9.33
2023-02-03T08:57:34.759Z,9.32
2023-02-03T09:00:01.263Z,9.35
2023-02-03T09:02:27.852Z,9.39
2023-02-03T09:04:54.492Z,9.39
2023-02-03T09:07:21.425Z,9.41
2023-02-03T09:09:47.977Z,9.44
2023-02-03T09:12:14.513Z,9.48
2023-02-03T09:14:41.118Z,9.51
2023-02-03T09:17:10.530Z,9.54
2023-02-03T09:19:37.271Z,9.57
2023-02-03T09:22:04.445Z,9.59
2023-02-03T09:24:31.158Z,9.61
2023-02-03T09:26:57.855Z,9.67
2023-02-03T09:29:24.433Z,9.70
2023-02-03T09:31:53.035Z,9.74
2023-02-03T09:34:21.020Z,9.77
2023-02-03T09:36:47.935Z,9.80
2023-02-03T09:39:15.662Z,9.82
2023-02-03T09:41:59.065Z,9.86
2023-02-03T09:44:44.007Z,9.85
2023-02-03T09:47:21.754Z,9.87
2023-02-03T09:49:53.578Z,9.86
2023-02-03T09:52:23.426Z,9.87
2023-02-03T09:55:30.076Z,9.90
2023-02-03T09:58:21.260Z,9.88
2023-02-03T10:00:52.794Z,9.88
2023-02-03T10:03:36.795Z,9.88
2023-02-03T10:06:18.103Z,9.89
2023-02-03T10:09:16.104Z,9.89
2023-02-03T10:12:13.391Z,9.87
2023-02-03T10:14:55.063Z,9.85
2023-02-03T10:17:30.721Z,9.84
2023-02-03T10:20:04.725Z,9.82
2023-02-03T10:22:34.772Z,9.83
2023-02-03T10:25:08.567Z,9.82
2023-02-03T10:27:37.427Z,9.83
2023-02-03T10:30:17.370Z,9.85
2023-02-03T10:32:43.864Z,9.85
2023-02-03T10:35:14.139Z,9.87
2023-02-03T10:37:45.236Z,9.89
2023-02-03T10:40:14.432Z,9.89
2023-02-03T10:43:02.747Z,9.91
2023-02-03T10:45:34.075Z,9.92
2023-02-03T10:48:00.985Z,9.95
2023-02-03T10:50:31.884Z,9.98
2023-02-03T10:53:26.252Z,10.02
2023-02-03T10:56:07.951Z,10.05
2023-02-03T10:58:34.943Z,10.06
2023-02-03T11:01:13.883Z,10.09
2023-02-03T11:04:04.760Z,10.12
2023-02-03T11:06:33.339Z,10.16
2023-02-03T11:09:00.215Z,10.17
2023-02-03T11:11:31.304Z,10.16
2023-02-03T11:14:03.855Z,10.21
2023-02-03T11:16:36.416Z,10.24
2023-02-03T11:19:17.005Z,10.28
2023-02-03T11:21:49.258Z,10.29
2023-02-03T11:24:25.025Z,10.33
2023-02-03T11:26:54.872Z,10.34
2023-02-03T11:29:30.684Z,10.36
2023-02-03T11:32:00.414Z,10.39
2023-02-03T11:34:34.424Z,10.40
2023-02-03T11:37:26.961Z,10.44
2023-02-03T11:40:18.084Z,10.48
2023-02-03T11:42:59.968Z,10.50
2023-02-03T11:45:33.525Z,10.50
2023-02-03T11:48:07.158Z,10.55
2023-02-03T11:50:33.532Z,10.57
2023-02-03T11:53:27.584Z,10.62
2023-02-03T11:56:30.961Z,10.67
2023-02-03T11:59:35.812Z,10.68
2023-02-03T12:02:14.039Z,10.70
2023-02-03T12:04:49.606Z,10.68
2023-02-03T12:07:53.820Z,10.67
2023-02-03T12:10:42.214Z,10.62
2023-02-03T12:13:50.380Z,10.62
2023-02-03T12:16:16.777Z,10.61
2023-02-03T12:18:58.535Z,10.61
2023-02-03T12:21:42.477Z,10.64
2023-02-03T12:24:27.592Z,10.60
2023-02-03T12:27:12.208Z,10.59
2023-02-03T12:29:43.963Z,10.59
2023-02-03T12:32:16.590Z,10.57
2023-02-03T12:34:52.022Z,10.55
2023-02-03T12:37:35.688Z,10.55
2023-02-03T12:40:07.307Z,10.48
2023-02-03T12:42:41.580Z,10.42
2023-02-03T12:45:08.057Z,10.30
2023-02-03T12:47:43.654Z,10.17
2023-02-03T12:50:42.647Z,10.11
2023-02-03T12:53:29.264Z,10.04
2023-02-03T12:56:05.087Z,10.01
2023-02-03T12:58:46.684Z,9.94
2023-02-03T13:01:28.185Z,9.92
2023-02-03T13:03:59.527Z,9.89
2023-02-03T13:06:49.992Z,9.81
2023-02-03T13:09:37.026Z,9.76
2023-02-03T13:12:20.628Z,9.71
2023-02-03T13:14:49.352Z,9.65
2023-02-03T13:17:22.245Z,9.58
2023-02-03T13:19:52.935Z,9.60
2023-02-03T13:22:23.799Z,9.59
2023-02-03T13:25:09.390Z,9.59
2023-02-03T13:27:51.260Z,9.60
2023-02-03T13:30:40.085Z,9.58
2023-02-03T13:33:34.422Z,9.59
2023-02-03T13:36:32.123Z,9.60
2023-02-03T13:39:30.484Z,9.61
2023-02-03T13:42:20.038Z,9.61
2023-02-03T13:44:51.535Z,9.61
2023-02-03T13:47:39.355Z,9.69
2023-02-03T13:50:22.529Z,9.67
2023-02-03T13:52:59.830Z,9.68
2023-02-03T13:55:39.602Z,9.67
2023-02-03T13:58:22.369Z,9.70
2023-02-03T14:00:51.858Z,9.69
2023-02-03T14:03:24.502Z,9.66
2023-02-03T14:05:56.088Z,9.70
2023-02-03T14:08:25.698Z,9.73
2023-02-03T14:11:29.684Z,9.77
2023-02-03T14:14:08.400Z,9.77
2023-02-03T14:16:49.831Z,9.78
2023-02-03T14:19:19.998Z,9.78
2023-02-03T14:21:55.286Z,9.78
2023-02-03T14:24:22.510Z,9.77
2023-02-03T14:26:52.769Z,9.76
2023-02-03T14:29:36.599Z,9.77
2023-02-03T14:32:05.300Z,9.75
2023-02-03T14:34:43.561Z,9.71
2023-02-03T14:37:15.593Z,9.71
2023-02-03T14:39:50.299Z,9.75
2023-02-03T14:42:28.913Z,9.73
2023-02-03T14:45:15.264Z,9.72
2023-02-03T14:48:09.414Z,9.69
2023-02-03T14:50:38.928Z,9.72
2023-02-03T14:53:11.251Z,9.72
2023-02-03T14:55:46.463Z,9.72
2023-02-03T14:58:48.225Z,9.69
2023-02-03T15:01:38.077Z,9.67
2023-02-03T15:04:13.460Z,9.67
2023-02-03T15:06:50.141Z,9.66
2023-02-03T15:09:36.724Z,9.67
2023-02-03T15:12:03.756Z,9.70
2023-02-03T15:14:33.604Z,9.63
2023-02-03T15:17:11.374Z,9.61
2023-02-03T15:19:42.930Z,9.58
2023-02-03T15:22:23.237Z,9.56
2023-02-03T15:24:52.839Z,9.59
2023-02-03T15:27:24.644Z,9.56
2023-02-03T15:29:51.699Z,9.52
2023-02-03T15:32:28.626Z,9.49
2023-02-03T15:34:56.612Z,9.48
2023-02-03T15:37:37.250Z,9.48
2023-02-03T15:40:15.238Z,9.48
2023-02-03T15:43:07.263Z,9.50
2023-02-03T15:45:41.815Z,9.50
2023-02-03T15:48:31.498Z,9.49
2023-02-03T15:51:06.517Z,9.51
2023-02-03T15:53:53.206Z,9.48
2023-02-03T15:56:21.864Z,9.45
2023-02-03T15:58:49.710Z,9.45
2023-02-03T16:01:22.088Z,9.45
2023-02-03T16:03:55.002Z,9.46
2023-02-03T16:06:30.302Z,9.46
2023-02-03T16:08:58.751Z,9.45
2023-02-03T16:11:30.186Z,9.40
2023-02-03T16:13:59.782Z,9.41
2023-02-03T16:16:28.907Z,9.41
2023-02-03T16:18:58.236Z,9.41
2023-02-03T16:21:51.891Z,9.40
2023-02-03T16:24:47.775Z,9.31
2023-02-03T16:27:26.232Z,9.27
2023-02-03T16:30:41.770Z,9.25
2023-02-03T16:33:26.919Z,9.19
2023-02-03T16:36:16.448Z,9.17
2023-02-03T16:39:08.516Z,9.17
2023-02-03T16:41:55.473Z,9.21
2023-02-03T16:44:40.551Z,9.17
2023-02-03T16:47:44.334Z,9.16
2023-02-03T16:50:40.277Z,9.14
2023-02-03T16:53:20.215Z,9.14
2023-02-03T16:55:48.101Z,9.11
2023-02-03T16:58:15.083Z,9.12
2023-02-03T17:00:44.205Z,9.09
2023-02-03T17:03:13.095Z,9.08
2023-02-03T17:05:41.276Z,9.09
2023-02-03T17:08:08.147Z,9.03
2023-02-03T17:10:35.731Z,9.00
2023-02-03T17:13:02.388Z,9.02
2023-02-03T17:15:29.145Z,9.01
2023-02-03T17:17:55.885Z,9.03
2023-02-03T17:20:22.349Z,9.03
2023-02-03T17:22:51.653Z,9.04
2023-02-03T17:25:18.164Z,9.04
2023-02-03T17:27:44.667Z,9.01
2023-02-03T17:30:11.733Z,9.00
2023-02-03T17:32:38.224Z,8.95
2023-02-03T17:35:05.248Z,8.93
2023-02-03T17:37:35.575Z,8.91
2023-02-03T17:54:12.398Z,8.83
2023-02-03T17:56:38.885Z,8.83
2023-02-03T17:59:05.994Z,8.79
2023-02-03T18:01:32.957Z,8.77
2023-02-03T18:04:02.629Z,8.78
2023-02-03T18:06:30.964Z,8.76
2023-02-03T18:09:03.099Z,8.75
2023-02-03T18:11:30.894Z,8.73
2023-02-03T18:13:57.449Z,8.72
2023-02-03T18:16:34.813Z,8.72
2023-02-03T18:19:05.096Z,8.71
2023-02-03T18:21:32.410Z,8.72
2023-02-03T18:24:01.643Z,8.76
2023-02-03T18:26:32.840Z,8.77
2023-02-03T18:28:59.428Z,8.80
2023-02-03T18:31:26.182Z,8.74
2023-02-03T18:33:53.394Z,8.77
2023-02-03T18:36:20.592Z,8.73
2023-02-03T18:38:48.161Z,8.75
2023-02-03T18:41:17.499Z,8.76
2023-02-03T18:43:45.090Z,8.76
2023-02-03T18:46:19.912Z,8.75
2023-02-03T18:48:46.818Z,8.75
2023-02-03T18:51:15.620Z,8.78
2023-02-03T18:53:43.913Z,8.77
2023-02-03T18:56:15.626Z,8.80
2023-02-03T18:58:42.366Z,8.80
2023-02-03T19:01:09.023Z,8.82
2023-02-03T19:03:37.204Z,8.78
2023-02-03T19:06:09.198Z,8.79
2023-02-03T19:08:35.630Z,8.81
2023-02-03T19:11:02.070Z,8.80
2023-02-03T19:13:28.556Z,8.80
2023-02-03T19:15:55.053Z,8.82
2023-02-03T19:18:21.533Z,8.82
2023-02-03T19:20:48.023Z,8.79
2023-02-03T19:23:14.740Z,8.77
2023-02-03T19:25:41.231Z,8.74
2023-02-03T19:28:14.216Z,8.73
2023-02-03T19:30:44.363Z,8.70
2023-02-03T19:33:11.100Z,8.72
2023-02-03T19:35:38.567Z,8.72
2023-02-03T19:38:05.428Z,8.71
2023-02-03T19:40:32.304Z,8.67
2023-02-03T19:42:59.218Z,8.70
2023-02-03T19:45:25.832Z,8.67
2023-02-03T19:47:52.479Z,8.67
2023-02-03T19:50:19.112Z,8.69
2023-02-03T19:52:47.139Z,8.69
2023-02-03T19:55:14.548Z,8.70
2023-02-03T19:57:41.011Z,8.71
2023-02-03T20:00:08.491Z,8.73
2023-02-03T20:02:34.943Z,8.70
2023-02-03T20:05:01.453Z,8.70
2023-02-03T20:07:28.630Z,8.67
2023-02-03T20:09:55.273Z,8.69
2023-02-03T20:12:21.790Z,8.66
2023-02-03T20:14:48.231Z,8.67
2023-02-03T20:17:14.683Z,8.67
2023-02-03T20:19:41.104Z,8.68
2023-02-03T20:22:07.567Z,8.67
2023-02-03T20:24:34.731Z,8.68
2023-02-03T20:27:01.322Z,8.70
2023-02-03T20:29:27.831Z,8.70
2023-02-03T20:31:54.842Z,8.69
2023-02-03T20:34:22.168Z,8.71
2023-02-03T20:36:48.600Z,8.71
2023-02-03T20:39:19.928Z,8.68
2023-02-03T20:41:46.399Z,8.66
2023-02-03T20:44:14.176Z,8.66
2023-02-03T20:46:41.292Z,8.69
2023-02-03T20:49:16.657Z,8.70
2023-02-03T20:51:43.169Z,8.71
2023-02-03T20:54:18.038Z,8.73
2023-02-03T20:56:45.153Z,8.74
2023-02-03T20:59:13.573Z,8.72
2023-02-03T21:01:40.377Z,8.73
2023-02-03T21:04:30.739Z,8.71
2023-02-03T21:06:57.382Z,8.72
2023-02-03T21:09:24.661Z,8.72
2023-02-03T21:11:52.010Z,8.71
2023-02-03T21:14:21.652Z,8.71
2023-02-03T21:16:48.735Z,8.73
2023-02-03T21:19:26.523Z,8.74
2023-02-03T21:21:53.253Z,8.71
2023-02-03T21:24:33.064Z,8.72
2023-02-03T21:27:01.051Z,8.74
2023-02-03T21:29:34.109Z,8.73
2023-02-03T21:32:00.921Z,8.72
2023-02-03T21:34:33.247Z,8.72
2023-02-03T21:37:21.088Z,8.69
2023-02-03T21:39:48.428Z,8.68
2023-02-03T21:42:42.154Z,8.69
2023-02-03T21:45:14.643Z,8.69
2023-02-03T21:47:41.454Z,8.69
2023-02-03T21:50:31.617Z,8.69
2023-02-03T21:53:26.247Z,8.67
2023-02-03T21:55:53.095Z,8.69
2023-02-03T21:58:29.064Z,8.72
2023-02-03T22:00:58.087Z,8.72
2023-02-03T22:03:30.011Z,8.69
2023-02-03T22:06:08.308Z,8.69
2023-02-03T22:08:44.227Z,8.64
2023-02-03T22:11:11.502Z,8.69
2023-02-03T22:13:38.056Z,8.65
2023-02-03T22:16:04.962Z,8.62
2023-02-03T22:18:31.993Z,8.58
2023-02-03T22:20:58.937Z,8.59
2023-02-03T22:23:25.481Z,8.55
2023-02-03T22:25:52.112Z,8.56
2023-02-03T22:28:18.756Z,8.56
2023-02-03T22:30:45.415Z,8.50
2023-02-03T22:33:11.956Z,8.51
2023-02-03T22:35:38.443Z,8.54
2023-02-03T22:38:04.926Z,8.55
2023-02-03T22:40:31.728Z,8.51
2023-02-03T22:42:58.343Z,8.50
2023-02-03T22:45:25.013Z,8.53
2023-02-03T22:47:51.484Z,8.54
2023-02-03T22:50:22.407Z,8.53
2023-02-03T22:52:57.834Z,8.54
2023-02-03T22:55:24.401Z,8.58
2023-02-03T22:57:50.952Z,8.59
2023-02-03T23:00:22.966Z,8.61
2023-02-03T23:02:50.170Z,8.59
2023-02-03T23:05:18.529Z,8.53
2023-02-03T23:07:45.828Z,8.55
2023-02-03T23:10:17.622Z,8.56
2023-02-03T23:12:44.374Z,8.51
2023-02-03T23:15:11.643Z,8.51
2023-02-03T23:17:38.324Z,8.56
2023-02-03T23:20:07.200Z,8.57
2023-02-03T23:22:33.673Z,8.51
2023-02-03T23:25:00.433Z,8.52
2023-02-03T23:27:27.123Z,8.55
2023-02-03T23:29:53.643Z,8.54
2023-02-03T23:32:20.138Z,8.54
2023-02-03T23:35:04.923Z,8.50
2023-02-03T23:37:31.524Z,8.56
2023-02-03T23:39:58.251Z,8.61
2023-02-03T23:42:24.727Z,8.64
2023-02-03T23:44:51.356Z,8.57
2023-02-03T23:47:17.818Z,8.51
2023-02-03T23:49:44.237Z,8.55
2023-02-03T23:52:10.711Z,8.49
2023-02-03T23:54:37.161Z,8.44
2023-02-03T23:57:04.792Z,8.39
2023-02-03T23:59:31.723Z,8.40
